createdAt,value
2022-10-26T00:01:42.130Z,11.60
2022-10-26T00:04:10.059Z,11.60
2022-10-26T00:06:37.949Z,11.60
2022-10-26T00:09:07.253Z,11.50
2022-10-26T00:11:35.078Z,11.50
2022-10-26T00:14:03.048Z,11.40
2022-10-26T00:16:31.244Z,11.40
2022-10-26T00:18:59.341Z,11.40
2022-10-26T00:21:27.393Z,11.30
2022-10-26T00:23:55.314Z,11.30
2022-10-26T00:26:24.563Z,11.30
2022-10-26T00:28:54.489Z,11.30
2022-10-26T00:31:22.503Z,11.30
2022-10-26T00:33:53.821Z,11.30
2022-10-26T00:36:21.895Z,11.20
2022-10-26T00:38:50.845Z,11.20
2022-10-26T00:41:20.402Z,11.20
2022-10-26T00:43:50.242Z,11.20
2022-10-26T00:46:21.024Z,11.10
2022-10-26T00:48:53.070Z,11.10
2022-10-26T00:51:26.493Z,11.10
2022-10-26T00:53:56.255Z,11.10
2022-10-26T00:56:24.954Z,11.00
2022-10-26T00:58:54.935Z,11.00
2022-10-26T01:01:22.917Z,11.00
2022-10-26T01:03:51.056Z,11.00
2022-10-26T01:06:19.806Z,11.00
2022-10-26T01:08:48.814Z,11.00
2022-10-26T01:11:17.480Z,11.00
2022-10-26T01:13:47.370Z,10.90
2022-10-26T01:16:42.861Z,10.90
2022-10-26T01:19:45.580Z,10.90
2022-10-26T01:22:17.877Z,10.80
2022-10-26T01:25:10.334Z,10.80
2022-10-26T01:27:40.135Z,10.70
2022-10-26T01:30:26.059Z,10.80
2022-10-26T01:33:10.225Z,10.80
2022-10-26T01:35:46.509Z,10.70
2022-10-26T01:38:23.843Z,10.70
2022-10-26T01:40:59.903Z,10.70
2022-10-26T01:43:32.862Z,10.70
2022-10-26T01:46:04.243Z,10.70
2022-10-26T01:48:34.021Z,10.80
2022-10-26T01:51:04.726Z,10.80
2022-10-26T01:53:32.714Z,10.80
2022-10-26T01:56:02.180Z,10.80
2022-10-26T01:58:51.529Z,10.80
2022-10-26T02:01:34.567Z,10.80
2022-10-26T02:04:12.300Z,10.80
2022-10-26T02:06:49.726Z,10.80
2022-10-26T02:09:28.594Z,10.80
2022-10-26T02:11:57.633Z,10.80
2022-10-26T02:14:33.041Z,10.80
2022-10-26T02:17:09.158Z,10.80
2022-10-26T02:19:42.257Z,10.80
2022-10-26T02:22:16.345Z,10.80
2022-10-26T02:24:45.635Z,10.80
2022-10-26T02:27:18.316Z,10.80
2022-10-26T02:29:47.204Z,10.80
2022-10-26T02:32:18.318Z,10.80
2022-10-26T02:34:48.721Z,10.80
2022-10-26T02:37:20.422Z,10.80
2022-10-26T02:39:52.417Z,10.70
2022-10-26T02:42:20.727Z,10.70
2022-10-26T02:44:51.375Z,10.60
2022-10-26T02:47:21.132Z,10.60
2022-10-26T02:49:49.128Z,10.60
2022-10-26T02:52:24.303Z,10.60
2022-10-26T02:54:57.891Z,10.60
2022-10-26T02:57:30.309Z,10.50
2022-10-26T02:59:59.094Z,10.60
2022-10-26T03:02:30.275Z,10.60
2022-10-26T03:05:07.383Z,10.60
2022-10-26T03:07:35.411Z,10.60
2022-10-26T03:10:03.316Z,10.60
2022-10-26T03:12:31.194Z,10.60
2022-10-26T03:14:59.298Z,10.60
2022-10-26T03:17:28.609Z,10.60
2022-10-26T03:19:56.763Z,10.60
2022-10-26T03:22:24.879Z,10.60
2022-10-26T03:24:52.898Z,10.60
2022-10-26T03:27:20.754Z,10.50
2022-10-26T03:29:48.688Z,10.50
2022-10-26T03:32:16.702Z,10.50
2022-10-26T03:34:46.205Z,10.50
2022-10-26T03:37:14.183Z,10.50
2022-10-26T03:39:42.110Z,10.50
2022-10-26T03:42:09.980Z,10.50
2022-10-26T03:44:37.924Z,10.50
2022-10-26T03:47:05.915Z,10.50
2022-10-26T03:49:33.987Z,10.50
2022-10-26T03:52:03.459Z,10.50
2022-10-26T03:54:31.342Z,10.40
2022-10-26T03:56:59.397Z,10.40
2022-10-26T03:59:27.334Z,10.40
2022-10-26T04:01:57.673Z,10.40
2022-10-26T04:04:26.200Z,10.40
2022-10-26T04:06:54.170Z,10.40
2022-10-26T04:09:23.458Z,10.30
2022-10-26T04:11:51.507Z,10.30
2022-10-26T04:14:19.375Z,10.30
2022-10-26T04:16:47.379Z,10.30
2022-10-26T04:19:15.375Z,10.30
2022-10-26T04:21:43.299Z,10.30
2022-10-26T04:24:12.135Z,10.20
2022-10-26T04:26:41.488Z,10.20
2022-10-26T04:29:09.438Z,10.20
2022-10-26T04:31:37.417Z,10.20
2022-10-26T04:34:05.409Z,10.10
2022-10-26T04:36:34.531Z,10.10
2022-10-26T04:39:02.527Z,10.10
2022-10-26T04:41:30.397Z,10.10
2022-10-26T04:43:59.899Z,10.10
2022-10-26T04:46:27.827Z,10.20
2022-10-26T04:48:55.786Z,10.20
2022-10-26T04:51:23.670Z,10.20
2022-10-26T04:53:51.658Z,10.30
2022-10-26T04:56:19.551Z,10.40
2022-10-26T04:58:47.468Z,10.40
2022-10-26T05:01:16.787Z,10.40
2022-10-26T05:03:44.763Z,10.30
2022-10-26T05:06:12.708Z,10.30
2022-10-26T05:08:40.593Z,10.30
2022-10-26T05:11:08.654Z,10.30
2022-10-26T05:13:36.543Z,10.30
2022-10-26T05:16:04.796Z,10.30
2022-10-26T05:18:34.106Z,10.30
2022-10-26T05:21:02.002Z,10.20
2022-10-26T05:23:29.876Z,10.20
2022-10-26T05:25:58.039Z,10.20
2022-10-26T05:28:25.901Z,10.20
2022-10-26T05:30:53.901Z,10.20
2022-10-26T05:33:21.881Z,10.10
2022-10-26T05:35:55.407Z,10.10
2022-10-26T05:38:23.510Z,10.10
2022-10-26T05:40:53.002Z,10.10
2022-10-26T05:43:21.896Z,10.10
2022-10-26T05:45:51.645Z,10.10
2022-10-26T05:48:19.678Z,10.00
2022-10-26T05:50:47.603Z,10.00
2022-10-26T05:53:16.850Z,9.90
2022-10-26T05:55:45.559Z,9.90
2022-10-26T05:58:15.465Z,9.80
2022-10-26T06:00:53.518Z,9.80
2022-10-26T06:03:36.985Z,9.80
2022-10-26T06:06:07.355Z,9.70
2022-10-26T06:08:37.378Z,9.70
2022-10-26T06:11:07.760Z,9.70
2022-10-26T06:13:36.256Z,9.60
2022-10-26T06:16:27.018Z,9.60
2022-10-26T06:19:07.023Z,9.60
2022-10-26T06:21:53.677Z,9.50
2022-10-26T06:24:31.175Z,9.50
2022-10-26T06:27:05.411Z,9.50
2022-10-26T06:29:43.657Z,9.50
2022-10-26T06:32:12.603Z,9.50
2022-10-26T06:34:46.057Z,9.50
2022-10-26T06:37:14.723Z,9.50
2022-10-26T06:39:48.931Z,9.50
2022-10-26T06:42:20.554Z,9.60
2022-10-26T06:44:49.147Z,9.50
2022-10-26T06:47:23.657Z,9.60
2022-10-26T06:50:01.445Z,9.60
2022-10-26T06:52:36.363Z,9.60
2022-10-26T06:55:06.619Z,9.60
2022-10-26T06:57:36.801Z,9.60
2022-10-26T07:00:08.248Z,9.60
2022-10-26T07:02:36.274Z,9.60
2022-10-26T07:05:04.299Z,9.60
2022-10-26T07:07:32.908Z,9.60
2022-10-26T07:10:01.932Z,9.60
2022-10-26T07:12:33.002Z,9.60
2022-10-26T07:15:01.470Z,9.60
2022-10-26T07:17:30.500Z,9.70
2022-10-26T07:19:58.947Z,9.80
2022-10-26T07:22:26.931Z,9.90
2022-10-26T07:24:57.014Z,9.90
2022-10-26T07:27:27.254Z,10.00
2022-10-26T07:29:56.538Z,10.20
2022-10-26T07:32:24.472Z,10.30
2022-10-26T07:34:52.477Z,10.40
2022-10-26T07:37:20.444Z,10.50
2022-10-26T07:39:48.326Z,10.60
2022-10-26T07:42:16.415Z,10.80
2022-10-26T07:44:44.367Z,10.90
2022-10-26T07:47:13.731Z,11.00
2022-10-26T07:49:41.780Z,11.10
2022-10-26T07:52:11.054Z,11.20
2022-10-26T07:54:39.530Z,11.30
2022-10-26T07:57:07.536Z,11.40
2022-10-26T07:59:35.644Z,11.60
2022-10-26T08:02:03.634Z,11.70
2022-10-26T08:04:33.013Z,11.80
2022-10-26T08:07:00.930Z,11.80
2022-10-26T08:09:28.845Z,11.90
2022-10-26T08:11:56.814Z,12.00
2022-10-26T08:14:24.741Z,12.10
2022-10-26T08:16:52.862Z,12.30
2022-10-26T08:19:21.086Z,12.50
2022-10-26T08:21:50.363Z,12.60
2022-10-26T08:24:18.304Z,12.80
2022-10-26T08:26:46.351Z,12.80
2022-10-26T08:29:14.269Z,12.90
2022-10-26T08:31:42.138Z,13.10
2022-10-26T08:34:10.292Z,13.20
2022-10-26T08:36:38.169Z,13.20
2022-10-26T08:39:07.495Z,13.30
2022-10-26T08:41:38.718Z,13.50
2022-10-26T08:44:19.658Z,13.60
2022-10-26T08:46:51.229Z,13.70
2022-10-26T08:49:24.314Z,13.80
2022-10-26T08:51:55.953Z,14.00
2022-10-26T08:54:34.464Z,14.10
2022-10-26T08:57:10.069Z,14.30
2022-10-26T08:59:44.864Z,14.40
2022-10-26T09:02:14.629Z,14.50
2022-10-26T09:04:43.354Z,14.60
2022-10-26T09:07:23.847Z,14.70
2022-10-26T09:10:01.819Z,14.90
2022-10-26T09:12:42.292Z,15.00
2022-10-26T09:15:19.222Z,15.10
2022-10-26T09:17:57.890Z,15.20
2022-10-26T09:20:49.395Z,15.20
2022-10-26T09:23:35.050Z,15.30
2022-10-26T09:26:09.799Z,15.30
2022-10-26T09:28:39.708Z,15.40
2022-10-26T09:31:10.451Z,15.50
2022-10-26T09:33:41.477Z,15.60
2022-10-26T09:36:16.089Z,15.70
2022-10-26T09:38:48.442Z,15.70
2022-10-26T09:41:27.142Z,15.80
2022-10-26T09:44:05.500Z,15.80
2022-10-26T09:46:41.534Z,15.90
2022-10-26T09:49:13.684Z,15.90
2022-10-26T09:51:42.938Z,16.00
2022-10-26T09:54:16.358Z,16.00
2022-10-26T09:56:48.542Z,16.10
2022-10-26T09:59:19.130Z,16.20
2022-10-26T10:01:47.090Z,16.30
2022-10-26T10:04:21.123Z,16.30
2022-10-26T10:06:50.154Z,16.40
2022-10-26T10:09:20.871Z,16.50
2022-10-26T10:11:56.436Z,16.50
2022-10-26T10:14:26.083Z,16.60
2022-10-26T10:16:59.951Z,16.70
2022-10-26T10:19:29.947Z,16.70
2022-10-26T10:21:59.942Z,16.80
2022-10-26T10:24:30.201Z,16.70
2022-10-26T10:27:01.623Z,16.80
2022-10-26T10:29:30.459Z,16.80
2022-10-26T10:31:59.715Z,16.90
2022-10-26T10:34:28.123Z,16.90
2022-10-26T10:36:56.477Z,16.90
2022-10-26T10:39:38.428Z,16.90
2022-10-26T10:42:17.383Z,16.90
2022-10-26T10:44:47.227Z,16.90
2022-10-26T10:47:26.916Z,17.00
2022-10-26T10:49:58.319Z,17.00
2022-10-26T10:52:29.314Z,17.00
2022-10-26T10:55:16.666Z,17.00
2022-10-26T10:58:02.886Z,17.00
2022-10-26T11:00:33.539Z,17.10
2022-10-26T11:03:16.856Z,17.10
2022-10-26T11:06:04.773Z,17.10
2022-10-26T11:08:39.095Z,17.00
2022-10-26T11:11:13.761Z,17.10
2022-10-26T11:13:51.332Z,17.00
2022-10-26T11:16:25.555Z,17.10
2022-10-26T11:18:58.125Z,17.10
2022-10-26T11:21:29.650Z,17.20
2022-10-26T11:24:13.328Z,17.30
2022-10-26T11:26:46.675Z,17.40
2022-10-26T11:29:25.598Z,17.40
2022-10-26T11:31:59.251Z,17.40
2022-10-26T11:34:35.496Z,17.40
2022-10-26T11:37:09.091Z,17.40
2022-10-26T11:39:44.627Z,17.40
2022-10-26T11:42:22.111Z,17.40
2022-10-26T11:44:58.242Z,17.40
2022-10-26T11:47:35.414Z,17.50
2022-10-26T11:50:14.779Z,17.50
2022-10-26T11:52:50.282Z,17.50
2022-10-26T11:55:19.723Z,17.50
2022-10-26T11:57:47.782Z,17.50
2022-10-26T12:00:20.599Z,17.40
2022-10-26T12:02:51.940Z,17.40
2022-10-26T12:05:24.345Z,17.40
2022-10-26T12:07:56.460Z,17.40
2022-10-26T12:10:30.730Z,17.40
2022-10-26T12:13:12.103Z,17.50
2022-10-26T12:16:02.203Z,17.50
2022-10-26T12:18:56.298Z,17.50
2022-10-26T12:21:28.436Z,17.50
2022-10-26T12:23:58.797Z,17.60
2022-10-26T12:26:55.083Z,17.60
2022-10-26T12:29:30.632Z,17.60
2022-10-26T12:32:00.379Z,17.60
2022-10-26T12:35:00.195Z,17.60
2022-10-26T12:37:36.699Z,17.60
2022-10-26T12:40:40.914Z,17.60
2022-10-26T12:43:34.750Z,17.70
2022-10-26T12:46:42.594Z,17.70
2022-10-26T12:49:43.434Z,17.70
2022-10-26T12:52:40.744Z,17.70
2022-10-26T12:55:43.098Z,17.80
2022-10-26T12:58:25.509Z,17.80
2022-10-26T13:01:24.813Z,17.90
2022-10-26T13:04:03.447Z,18.00
2022-10-26T13:06:51.150Z,17.90
2022-10-26T13:09:23.678Z,18.00
2022-10-26T13:11:56.166Z,18.10
2022-10-26T13:14:26.619Z,18.20
2022-10-26T13:16:54.859Z,18.20
2022-10-26T13:19:28.324Z,18.20
2022-10-26T13:22:00.036Z,18.30
2022-10-26T13:24:32.066Z,18.30
2022-10-26T13:27:40.466Z,18.30
2022-10-26T13:30:21.992Z,18.40
2022-10-26T13:32:53.398Z,18.30
2022-10-26T13:35:24.172Z,18.30
2022-10-26T13:37:55.708Z,18.30
2022-10-26T13:40:28.078Z,18.30
2022-10-26T13:42:58.152Z,18.30
2022-10-26T13:45:29.324Z,18.30
2022-10-26T13:48:02.413Z,18.40
2022-10-26T13:50:38.804Z,18.30
2022-10-26T13:53:14.254Z,18.30
2022-10-26T13:55:49.800Z,18.30
2022-10-26T13:58:23.897Z,18.30
2022-10-26T14:01:13.836Z,18.30
2022-10-26T14:03:42.947Z,18.30
2022-10-26T14:06:17.428Z,18.30
2022-10-26T14:08:49.353Z,18.20
2022-10-26T14:11:21.757Z,18.20
2022-10-26T14:13:51.275Z,18.20
2022-10-26T14:16:21.163Z,18.20
2022-10-26T14:18:49.850Z,18.20
2022-10-26T14:21:20.909Z,18.10
2022-10-26T14:23:51.816Z,18.10
2022-10-26T14:26:23.647Z,18.10
2022-10-26T14:28:53.815Z,18.10
2022-10-26T14:31:25.189Z,18.00
2022-10-26T14:33:53.668Z,18.00
2022-10-26T14:36:25.531Z,18.00
2022-10-26T14:38:58.897Z,18.00
2022-10-26T14:41:29.033Z,18.00
2022-10-26T14:43:59.419Z,18.00
2022-10-26T14:46:33.360Z,18.00
2022-10-26T14:49:03.062Z,18.00
2022-10-26T14:51:35.393Z,18.00
2022-10-26T14:54:05.006Z,18.00
2022-10-26T14:56:41.686Z,18.00
2022-10-26T14:59:14.334Z,18.00
2022-10-26T15:01:54.230Z,18.00
2022-10-26T15:04:34.989Z,18.00
2022-10-26T15:07:10.584Z,17.90
2022-10-26T15:09:44.325Z,17.90
2022-10-26T15:12:29.470Z,17.90
2022-10-26T15:15:06.358Z,17.80
2022-10-26T15:17:39.223Z,17.80
2022-10-26T15:20:09.367Z,17.80
2022-10-26T15:22:37.475Z,17.70
2022-10-26T15:25:07.611Z,17.60
2022-10-26T15:27:36.912Z,17.50
2022-10-26T15:30:18.310Z,17.40
2022-10-26T15:32:46.808Z,17.40
2022-10-26T15:35:26.588Z,17.30
2022-10-26T15:37:56.241Z,17.20
2022-10-26T15:43:01.245Z,17.00
2022-10-26T15:45:32.788Z,16.90
2022-10-26T15:48:17.201Z,16.90
2022-10-26T15:50:45.111Z,16.80
2022-10-26T15:53:19.163Z,16.70
2022-10-26T15:55:47.337Z,16.70
2022-10-26T15:58:16.965Z,16.60
2022-10-26T16:00:45.033Z,16.50
2022-10-26T16:03:16.990Z,16.40
2022-10-26T16:05:45.363Z,16.40
2022-10-26T16:08:17.872Z,16.40
2022-10-26T16:10:47.526Z,16.30
2022-10-26T16:13:17.235Z,16.30
2022-10-26T16:15:45.975Z,16.30
2022-10-26T16:18:14.150Z,16.20
2022-10-26T16:20:42.631Z,16.20
2022-10-26T16:23:10.505Z,16.20
2022-10-26T16:25:44.274Z,16.10
2022-10-26T16:28:14.702Z,16.10
2022-10-26T16:30:44.041Z,16.10
2022-10-26T16:33:12.086Z,16.10
2022-10-26T16:35:40.172Z,16.00
2022-10-26T16:38:08.147Z,16.00
2022-10-26T16:40:36.014Z,16.00
2022-10-26T16:43:03.983Z,15.90
2022-10-26T16:45:32.017Z,15.90
2022-10-26T16:48:05.650Z,15.90
2022-10-26T16:50:36.300Z,15.90
2022-10-26T16:53:05.048Z,15.90
2022-10-26T16:55:33.146Z,15.90
2022-10-26T16:58:01.131Z,15.80
2022-10-26T17:00:28.979Z,15.80
2022-10-26T17:02:56.963Z,15.80
2022-10-26T17:05:26.207Z,15.80
2022-10-26T17:07:54.135Z,15.80
2022-10-26T17:10:22.122Z,15.80
2022-10-26T17:12:50.327Z,15.80
2022-10-26T17:15:20.134Z,15.80
2022-10-26T17:17:48.993Z,15.80
2022-10-26T17:20:17.689Z,15.70
2022-10-26T17:22:46.958Z,15.70
2022-10-26T17:25:15.022Z,15.70
2022-10-26T17:27:46.440Z,15.60
2022-10-26T17:30:15.621Z,15.60
2022-10-26T17:32:43.820Z,15.50
2022-10-26T17:35:11.844Z,15.50
2022-10-26T17:37:40.867Z,15.40
2022-10-26T17:40:11.492Z,15.40
2022-10-26T17:42:40.315Z,15.40
2022-10-26T17:45:09.716Z,15.30
2022-10-26T17:47:37.752Z,15.30
2022-10-26T17:50:06.671Z,15.20
2022-10-26T17:52:34.654Z,15.20
2022-10-26T17:55:03.012Z,15.20
2022-10-26T17:57:33.484Z,15.10
2022-10-26T18:00:01.457Z,15.10
2022-10-26T18:02:29.825Z,15.10
2022-10-26T18:04:57.924Z,15.10
2022-10-26T18:07:26.038Z,15.00
2022-10-26T18:09:53.958Z,15.00
2022-10-26T18:12:22.157Z,15.00
2022-10-26T18:14:51.462Z,15.00
2022-10-26T18:17:19.322Z,14.90
2022-10-26T18:19:47.275Z,14.90
2022-10-26T18:22:15.197Z,14.90
2022-10-26T18:24:43.093Z,14.90
2022-10-26T18:27:11.007Z,14.80
2022-10-26T18:29:39.942Z,14.80
2022-10-26T18:32:09.511Z,14.80
2022-10-26T18:34:37.436Z,14.80
2022-10-26T18:37:05.378Z,14.80
2022-10-26T18:39:33.395Z,14.80
2022-10-26T18:42:01.316Z,14.80
2022-10-26T18:44:29.224Z,14.80
2022-10-26T18:46:57.232Z,14.70
2022-10-26T18:49:26.737Z,14.80
2022-10-26T18:51:54.657Z,14.80
2022-10-26T18:54:22.841Z,14.80
2022-10-26T18:56:50.776Z,14.80
2022-10-26T18:59:18.682Z,14.80
2022-10-26T19:01:47.195Z,14.90
2022-10-26T19:04:15.653Z,14.90
2022-10-26T19:06:47.484Z,14.90
2022-10-26T19:09:17.471Z,14.90
2022-10-26T19:11:45.751Z,14.90
2022-10-26T19:14:13.874Z,15.00
2022-10-26T19:16:47.111Z,15.00
2022-10-26T19:19:15.999Z,15.10
2022-10-26T19:21:45.990Z,15.00
2022-10-26T19:24:16.248Z,15.10
2022-10-26T19:26:44.746Z,15.10
2022-10-26T19:29:15.360Z,15.10
2022-10-26T19:31:44.623Z,15.10
2022-10-26T19:34:13.838Z,15.20
2022-10-26T19:36:44.877Z,15.10
2022-10-26T19:39:15.468Z,15.20
2022-10-26T19:41:44.270Z,15.20
2022-10-26T19:44:13.966Z,15.20
2022-10-26T19:46:43.089Z,15.20
2022-10-26T19:49:12.539Z,15.10
2022-10-26T19:51:40.536Z,15.10
2022-10-26T19:54:08.577Z,15.10
2022-10-26T19:56:38.938Z,15.10
2022-10-26T19:59:08.011Z,15.10
2022-10-26T20:01:36.404Z,15.10
2022-10-26T20:04:05.974Z,15.10
2022-10-26T20:06:34.252Z,15.10
2022-10-26T20:09:02.968Z,15.00
2022-10-26T20:11:32.332Z,15.00
2022-10-26T20:14:01.779Z,15.00
2022-10-26T20:16:29.714Z,15.00
2022-10-26T20:18:57.680Z,15.00
2022-10-26T20:21:25.613Z,14.90
2022-10-26T20:23:53.460Z,14.90
2022-10-26T20:26:23.375Z,14.80
2022-10-26T20:28:53.203Z,14.80
2022-10-26T20:31:22.517Z,14.80
2022-10-26T20:33:52.432Z,14.80
2022-10-26T20:36:20.691Z,14.80
2022-10-26T20:38:49.069Z,14.80
2022-10-26T20:41:17.771Z,14.80
2022-10-26T20:43:46.198Z,14.70
2022-10-26T20:46:24.349Z,14.70
2022-10-26T20:48:53.520Z,14.70
2022-10-26T20:51:26.449Z,14.70
2022-10-26T20:54:06.132Z,14.70
2022-10-26T20:56:35.394Z,14.70
2022-10-26T20:59:04.854Z,14.70
2022-10-26T21:01:38.144Z,14.60
2022-10-26T21:04:06.267Z,14.60
2022-10-26T21:06:40.094Z,14.60
2022-10-26T21:09:08.865Z,14.50
2022-10-26T21:11:36.745Z,14.50
2022-10-26T21:14:06.290Z,14.50
2022-10-26T21:16:35.561Z,14.50
2022-10-26T21:19:05.003Z,14.50
2022-10-26T21:21:33.005Z,14.50
2022-10-26T21:24:00.897Z,14.40
2022-10-26T21:26:28.827Z,14.40
2022-10-26T21:28:56.689Z,14.40
2022-10-26T21:31:24.702Z,14.40
2022-10-26T21:33:54.717Z,14.40
2022-10-26T21:36:22.984Z,14.40
2022-10-26T21:38:50.855Z,14.30
2022-10-26T21:41:20.244Z,14.30
2022-10-26T21:43:59.066Z,14.30
2022-10-26T21:46:37.869Z,14.20
2022-10-26T21:49:07.592Z,14.20
2022-10-26T21:51:35.958Z,14.20
2022-10-26T21:54:04.175Z,14.20
2022-10-26T21:56:32.240Z,14.20
2022-10-26T21:59:01.135Z,14.20
2022-10-26T22:01:29.353Z,14.20
2022-10-26T22:03:57.509Z,14.20
2022-10-26T22:06:26.921Z,14.20
2022-10-26T22:08:54.963Z,14.20
2022-10-26T22:11:24.980Z,14.20
2022-10-26T22:13:53.565Z,14.10
2022-10-26T22:16:23.590Z,14.10
2022-10-26T22:18:53.074Z,14.10
2022-10-26T22:21:22.357Z,14.10
2022-10-26T22:23:51.759Z,14.10
2022-10-26T22:26:21.028Z,14.10
2022-10-26T22:28:51.644Z,14.00
2022-10-26T22:31:21.846Z,14.00
2022-10-26T22:33:53.555Z,14.00
2022-10-26T22:36:22.037Z,13.90
2022-10-26T22:38:51.527Z,13.90
2022-10-26T22:41:20.563Z,13.90
2022-10-26T22:43:50.662Z,13.80
2022-10-26T22:46:20.761Z,13.80
2022-10-26T22:48:49.177Z,13.80
2022-10-26T22:51:19.667Z,13.70
2022-10-26T22:53:51.710Z,13.70
2022-10-26T22:56:21.432Z,13.60
2022-10-26T22:58:50.184Z,13.60
2022-10-26T23:01:20.430Z,13.60
2022-10-26T23:03:48.545Z,13.60
2022-10-26T23:06:19.584Z,13.50
2022-10-26T23:08:48.499Z,13.50
2022-10-26T23:11:18.910Z,13.50
2022-10-26T23:13:48.453Z,13.40
2022-10-26T23:16:18.868Z,13.40
2022-10-26T23:18:47.501Z,13.40
2022-10-26T23:21:16.576Z,13.40
2022-10-26T23:23:44.613Z,13.30
2022-10-26T23:26:14.470Z,13.30
2022-10-26T23:28:43.921Z,13.20
2022-10-26T23:31:17.311Z,13.20
2022-10-26T23:33:45.655Z,13.20
2022-10-26T23:36:13.610Z,13.20
2022-10-26T23:38:41.637Z,13.10
2022-10-26T23:41:12.199Z,13.10
2022-10-26T23:43:41.691Z,13.20
2022-10-26T23:46:10.094Z,13.20
2022-10-26T23:48:39.532Z,13.20
2022-10-26T23:51:07.635Z,13.20
2022-10-26T23:53:35.668Z,13.30
2022-10-26T23:56:03.807Z,13.30
2022-10-26T23:58:31.783Z,13.30
